Latest Weather Observations for Trangie

IDN60801

Issued at 1:32 pm EST Wednesday 26 April 2017 (issued every 30 minutes, with the page automatically refreshed every 10 minutes)

About weather observations | Map of weather stations | Latest weather observations for NSW | Other Formats
Station Details ID: 051049 Name: TRANGIE RESEARCH STATION AWS Lat: -31.99 Lon: 147.95 Height: 215.0 m
Data from the previous 72 hours. | See also: Recent months at Trangie
Date/Time
EST
Temp
°C
App
Temp
°C
Dew
Point
°C
Rel
Hum
%
Delta-T
°C
Wind Press
QNH
hPa
Press
MSL
hPa
Rain since
9am
mm
Dir  Spd
km/h
Gust
km/h
Spd
kts
Gust
kts
26/01:30pm 11.9 6.1 9.5 85 1.2 SW 30 41 16 22 1011.0 1010.5 0.0
26/01:00pm 11.5 4.6 8.9 84 1.3 SW 35 48 19 26 1011.1 1010.6 0.0
26/12:43pm 10.9 1.7 7.8 81 1.5 SW 46 65 25 35 1011.0 1010.5 0.0
26/12:30pm 12.8 1.4 6.6 66 3.0 WSW 56 83 30 45 1010.5 1010.0 0.0
26/12:28pm 13.3 2.2 6.2 62 3.4 WSW 54 83 29 45 1010.4 1009.9 0.0
26/12:25pm 14.3 3.8 5.7 56 4.1 W 50 83 27 45 1010.0 1009.4 0.0
26/12:23pm 17.9 9.1 7.9 52 5.1 W 44 83 24 45 1009.8 1009.2 0.0
26/12:09pm 20.8 13.3 8.1 44 6.7 W 37 57 20 31 1009.2 1008.6 0.0
26/12:00pm 18.5 11.3 9.3 55 4.9 W 37 50 20 27 1009.6 1009.0 0.0
26/11:30am 19.7 12.4 7.4 45 6.3 WNW 35 46 19 25 1009.7 1009.1 0.0
26/11:00am 18.6 12.3 9.1 54 5.0 W 32 39 17 21 1010.2 1009.6 0.0
26/10:30am 18.8 13.0 9.6 55 4.9 WSW 30 44 16 24 1010.6 1010.1 0.0
26/10:00am 18.7 14.3 11.8 64 3.8 W 26 35 14 19 1010.8 1010.3 0.0
26/09:30am 17.7 13.7 11.7 68 3.3 W 24 32 13 17 1011.0 1010.5 0.0
26/09:00am 16.2 13.1 12.2 77 2.2 WNW 20 30 11 16 1011.2 1010.7 1.0
26/08:30am 16.2 14.2 12.7 80 2.0 WNW 15 19 8 10 1011.0 1010.5 1.0
26/08:00am 15.1 13.7 13.5 90 0.9 WNW 13 22 7 12 1011.0 1010.5 1.0
26/07:30am 13.6 12.5 13.0 96 0.3 NW 11 13 6 7 1011.0 1010.5 1.0
26/07:00am 11.9 10.9 11.1 95 0.4 WNW 7 11 4 6 1010.9 1010.4 1.0
26/06:30am 12.8 11.8 12.2 96 0.3 W 9 13 5 7 1010.9 1010.4 1.0
26/06:00am 13.6 12.8 13.0 96 0.3 WNW 9 11 5 6 1010.9 1010.4 1.0
26/05:30am 14.3 14.1 13.7 96 0.3 WNW 7 7 4 4 1010.7 1010.2 1.0
26/05:00am 15.1 14.8 14.5 96 0.3 WNW 9 13 5 7 1010.8 1010.3 1.0
26/04:30am 15.4 14.9 14.8 96 0.3 W 11 13 6 7 1010.8 1010.3 1.0
26/04:00am 16.0 16.1 15.4 96 0.4 WNW 9 13 5 7 1010.8 1010.3 1.0
26/03:30am 16.1 15.8 15.5 96 0.4 WNW 11 15 6 8 1010.9 1010.4 1.0
26/03:00am 16.3 16.5 15.7 96 0.4 W 9 11 5 6 1010.7 1010.2 1.0
26/02:30am 16.5 16.0 15.9 96 0.4 W 13 19 7 10 1011.0 1010.5 1.0
26/02:00am 16.3 16.1 15.7 96 0.4 WNW 11 15 6 8 1011.2 1010.7 1.0
26/01:30am 16.6 16.5 16.0 96 0.4 NNW 11 15 6 8 1011.4 1010.9 1.0
26/01:00am 16.6 16.8 15.8 95 0.5 NNW 9 13 5 7 1011.4 1010.9 1.0
26/12:30am 15.9 16.2 15.1 95 0.5 N 7 9 4 5 1011.6 1011.1 1.0
26/12:00am 16.1 16.5 15.3 95 0.5 N 7 9 4 5 1011.7 1011.2 1.0
 
Date/Time
EST
Temp
°C
App
Temp
°C
Dew
Point
°C
Rel
Hum
%
Delta-T
°C
Wind Press
QNH
hPa
Press
MSL
hPa
Rain since
9am
mm
Dir  Spd
km/h
Gust
km/h
Spd
kts
Gust
kts
25/11:30pm 16.3 16.8 15.5 95 0.5 N 7 13 4 7 1012.0 1011.5 1.0
25/11:00pm 16.2 16.2 15.2 94 0.6 N 9 11 5 6 1012.0 1011.5 1.0
25/10:30pm 16.0 15.9 15.0 94 0.6 N 9 13 5 7 1012.1 1011.6 1.0
25/10:00pm 16.2 16.5 15.1 93 0.6 NNW 7 11 4 6 1012.2 1011.7 1.0
25/09:30pm 16.5 16.6 15.4 93 0.6 NNW 9 11 5 6 1012.3 1011.8 1.0
25/09:00pm 16.8 16.5 15.5 92 0.8 NNW 11 15 6 8 1012.3 1011.8 1.0
25/08:30pm 17.4 17.3 16.1 92 0.8 NNW 11 17 6 9 1012.3 1011.8 1.0
25/08:00pm 17.4 17.3 15.9 91 0.9 NNW 11 13 6 7 1012.2 1011.7 1.0
25/07:30pm 17.7 17.6 16.0 90 1.0 N 11 17 6 9 1012.0 1011.5 1.0
25/07:00pm 17.7 18.3 15.9 89 1.1 N 7 9 4 5 1011.8 1011.3 1.0
25/06:30pm 18.0 17.5 15.8 87 1.3 N 13 20 7 11 1011.5 1011.0 0.8
25/06:00pm 18.7 17.6 15.4 81 2.0 N 15 19 8 10 1011.3 1010.8 0.6
25/05:30pm 19.0 18.4 15.7 81 2.0 N 13 19 7 10 1011.4 1010.9 0.6
25/05:00pm 19.1 18.5 15.6 80 2.1 N 13 17 7 9 1011.3 1010.8 0.6
25/04:30pm 19.0 18.1 14.9 77 2.4 N 13 19 7 10 1011.4 1010.9 0.6
25/04:00pm 19.0 18.0 14.7 76 2.5 N 13 22 7 12 1011.3 1010.8 0.6
25/03:30pm 19.3 17.8 14.3 73 2.9 N 15 20 8 11 1011.4 1010.9 0.6
25/03:00pm 20.9 20.8 16.1 74 2.9 NNE 11 15 6 8 1011.4 1010.9 0.6
25/02:30pm 19.3 18.5 15.0 76 2.5 NNE 13 24 7 13 1011.8 1011.3 0.6
25/02:00pm 18.6 18.6 15.1 80 2.1 N 9 13 5 7 1012.3 1011.8 0.6
25/01:30pm 18.9 18.1 14.0 73 2.8 N 11 15 6 8 1013.3 1012.7 0.4
25/01:00pm 19.5 19.2 14.3 72 3.0 N 9 13 5 7 1013.4 1012.8 0.4
25/12:30pm 19.6 19.9 14.4 72 3.0 N 6 7 3 4 1013.8 1013.2 0.4
25/12:00pm 19.2 20.0 14.9 76 2.5 W 4 9 2 5 1014.3 1013.8 0.4
25/11:30am 19.0 17.1 14.1 73 2.8 W 17 26 9 14 1015.0 1014.5 0.2
25/11:00am 21.7 18.8 12.8 57 5.1 W 20 30 11 16 1015.3 1014.8 0.2
25/10:30am 21.3 19.8 14.2 64 4.2 WNW 15 22 8 12 1015.3 1014.8 0.2
25/10:00am 21.1 18.3 12.5 58 4.9 NW 19 26 10 14 1015.1 1014.6 0.0
25/09:30am 22.0 18.3 11.4 51 6.0 N 22 33 12 18 1014.3 1013.8 0.0
25/09:00am 21.5 17.7 11.2 52 5.8 N 22 33 12 18 1014.2 1013.6 0.8
25/08:30am 21.3 17.5 11.3 53 5.6 N 22 35 12 19 1014.3 1013.8 0.8
25/08:00am 21.0 17.2 11.3 54 5.4 N 22 37 12 20 1014.2 1013.6 0.8
25/07:30am 20.1 16.9 11.1 56 5.0 N 19 30 10 16 1014.3 1013.8 0.8
25/07:00am 19.5 16.7 11.3 59 4.5 NNE 17 24 9 13 1014.2 1013.6 0.8
25/06:30am 19.4 16.6 11.2 59 4.5 NNE 17 24 9 13 1014.0 1013.4 0.8
25/06:00am 19.4 17.0 11.4 60 4.4 NNE 15 28 8 15 1013.9 1013.3 0.8
25/05:30am 19.0 17.0 11.6 62 4.1 NNE 13 17 7 9 1014.3 1013.8 0.8
25/05:00am 18.7 17.1 11.5 63 4.0 NNE 11 19 6 10 1014.0 1013.4 0.8
25/04:30am 18.6 16.7 11.7 64 3.8 NNE 13 20 7 11 1014.0 1013.4 0.8
25/04:00am 17.8 16.3 12.0 69 3.2 NNE 11 17 6 9 1014.0 1013.4 0.8
25/03:30am 17.7 16.7 12.2 70 3.1 NE 9 13 5 7 1014.1 1013.5 0.8
25/03:00am 18.1 16.7 12.3 69 3.2 NE 11 15 6 8 1014.5 1014.0 0.8
25/02:30am 18.6 17.3 12.6 68 3.4 NE 11 19 6 10 1014.8 1014.3 0.8
25/02:00am 18.0 17.0 12.2 69 3.2 NE 9 15 5 8 1015.0 1014.5 0.8
25/01:30am 18.0 16.6 12.2 69 3.2 NE 11 15 6 8 1015.4 1014.9 0.8
25/01:00am 18.0 17.1 12.5 70 3.1 NE 9 13 5 7 1015.8 1015.3 0.8
25/12:30am 18.1 17.2 12.5 70 3.1 NE 9 13 5 7 1016.2 1015.7 0.8
25/12:00am 18.6 17.4 12.8 69 3.3 NE 11 15 6 8 1016.5 1016.0 0.8
 
Date/Time
EST
Temp
°C
App
Temp
°C
Dew
Point
°C
Rel
Hum
%
Delta-T
°C
Wind Press
QNH
hPa
Press
MSL
hPa
Rain since
9am
mm
Dir  Spd
km/h
Gust
km/h
Spd
kts
Gust
kts
24/11:30pm 18.7 17.6 13.1 70 3.2 NE 11 15 6 8 1016.9 1016.4 0.8
24/11:00pm 18.7 18.5 13.6 72 2.9 ENE 7 11 4 6 1017.4 1016.9 0.8
24/10:30pm 18.8 18.6 13.6 72 3.0 NE 7 11 4 6 1017.7 1017.2 0.8
24/10:00pm 18.7 18.6 13.8 73 2.8 NNE 7 13 4 7 1017.8 1017.3 0.8
24/09:30pm 19.0 18.4 13.6 71 3.1 NNE 9 13 5 7 1017.8 1017.3 0.8
24/09:00pm 18.7 18.4 13.3 71 3.1 NE 7 9 4 5 1018.0 1017.5 0.8
24/08:30pm 19.5 18.9 13.4 68 3.5 NNE 9 13 5 7 1018.0 1017.5 0.8
24/08:00pm 19.6 19.4 13.5 68 3.5 NNE 7 13 4 7 1018.2 1017.6 0.8
24/07:30pm 19.2 19.1 14.0 72 3.0 NE 7 9 4 5 1018.4 1017.9 0.8
24/07:00pm 19.2 19.1 14.0 72 3.0 NNE 7 11 4 6 1018.4 1017.9 0.8
24/06:30pm 19.4 19.3 14.0 71 3.1 NNE 7 9 4 5 1018.2 1017.6 0.8
24/06:00pm 19.4 19.2 13.6 69 3.3 NE 7 9 4 5 1017.9 1017.4 0.8
24/05:30pm 20.6 20.1 13.8 65 4.0 NE 9 15 5 8 1017.8 1017.3 0.8
24/05:00pm 21.0 20.5 13.9 64 4.1 NE 9 17 5 9 1017.8 1017.3 0.8
24/04:30pm 21.3 21.1 14.7 66 3.9 ENE 9 15 5 8 1017.8 1017.3 0.8
24/04:00pm 21.5 21.6 14.4 64 4.2 NE 7 13 4 7 1017.9 1017.4 0.8
24/03:30pm 21.9 21.2 14.3 62 4.5 ENE 11 17 6 9 1018.0 1017.5 0.8
24/03:00pm 22.2 22.0 14.8 63 4.4 ENE 9 17 5 9 1018.4 1017.9 0.8
24/02:30pm 21.9 21.8 15.0 65 4.1 NE 9 15 5 8 1018.5 1018.0 0.8
24/02:00pm 21.4 21.4 15.3 68 3.6 ENE 9 13 5 7 1018.8 1018.3 0.8
24/01:30pm 21.5 21.6 15.6 69 3.6 NE 9 13 5 7 1019.3 1018.8 0.8
24/01:00pm 21.5 20.9 14.6 65 4.1 NE 11 15 6 8 1019.7 1019.2 0.8
24/12:30pm 21.5 21.9 16.2 72 3.2 NE 9 15 5 8 1020.2 1019.7 0.8
24/12:00pm 19.6 19.9 16.1 80 2.1 E 9 15 5 8 1020.7 1020.2 0.8
24/11:30am 18.5 18.6 15.6 83 1.7 SE 9 15 5 8 1021.2 1020.7 0.8
24/11:00am 17.6 18.2 15.2 86 1.4 ESE 6 9 3 5 1021.9 1021.4 0.8
24/10:30am 17.0 18.4 14.5 85 1.4 CALM 0 0 0 0 1022.3 1021.9 0.4
24/10:00am 16.3 16.2 14.0 86 1.3 NE 7 11 4 6 1022.1 1021.6 0.4
24/09:30am 16.1 15.2 13.6 85 1.4 NE 11 15 6 8 1022.1 1021.6 0.4
24/09:00am 15.9 14.7 12.8 82 1.7 NE 11 15 6 8 1022.2 1021.7 0.8
24/08:30am 15.6 15.0 12.4 81 1.8 NE 7 11 4 6 1022.2 1021.7 0.4
24/08:00am 16.2 16.3 11.6 74 2.5 NE 2 6 1 3 1022.1 1021.6 0.0
24/07:30am 15.9 15.5 12.3 79 2.0 ESE 6 7 3 4 1021.8 1021.3 0.0
24/07:00am 15.9 16.0 11.5 75 2.4 NE 2 7 1 4 1021.6 1021.1 0.0
24/06:30am 16.4 15.3 10.0 66 3.4 NE 6 9 3 5 1021.2 1020.7 0.0
24/06:00am 16.7 15.0 9.9 64 3.6 NNE 9 15 5 8 1020.9 1020.4 0.0
24/05:30am 16.6 14.9 10.0 65 3.5 NNE 9 13 5 7 1020.6 1020.1 0.0
24/05:00am 16.4 14.8 10.3 67 3.2 NNE 9 13 5 7 1020.5 1020.0 0.0
24/04:30am 16.5 15.3 10.4 67 3.3 NE 7 11 4 6 1020.6 1020.1 0.0
24/04:00am 16.5 15.3 10.4 67 3.3 NNE 7 11 4 6 1020.4 1019.9 0.0
24/03:30am 16.6 15.3 10.0 65 3.5 NE 7 11 4 6 1020.4 1019.9 0.0
24/03:00am 16.3 15.1 10.2 67 3.2 ESE 7 9 4 5 1020.5 1020.0 0.0
24/02:30am 16.3 15.2 10.6 69 3.1 NE 7 11 4 6 1020.6 1020.1 0.0
24/02:00am 15.2 14.2 10.4 73 2.5 ENE 6 9 3 5 1020.9 1020.4 0.0
24/01:30am 14.8 13.7 10.0 73 2.5 ESE 6 9 3 5 1021.0 1020.5 0.0
24/01:00am 14.9 15.0 10.1 73 2.5 CALM 0 0 0 0 1021.3 1020.8 0.0
24/12:30am 14.8 14.7 9.6 71 2.7 CALM 0 0 0 0 1021.6 1021.1 0.0
24/12:00am 15.4 15.6 10.4 72 2.7 CALM 0 0 0 0 1021.9 1021.4 0.0
 
Date/Time
EST
Temp
°C
App
Temp
°C
Dew
Point
°C
Rel
Hum
%
Delta-T
°C
Wind Press
QNH
hPa
Press
MSL
hPa
Rain since
9am
mm
Dir  Spd
km/h
Gust
km/h
Spd
kts
Gust
kts
23/11:30pm 14.6 14.5 9.6 72 2.6 CALM 0 0 0 0 1022.0 1021.5 0.0
23/11:00pm 14.1 14.1 9.7 75 2.3 CALM 0 0 0 0 1022.2 1021.7 0.0
23/10:30pm 13.9 13.7 8.9 72 2.6 CALM 0 0 0 0 1022.2 1021.7 0.0
23/10:00pm 15.5 15.4 9.6 68 3.1 CALM 0 0 0 0 1022.4 1022.0 0.0
23/09:30pm 17.0 16.1 10.6 66 3.5 NNE 6 7 3 4 1022.3 1021.9 0.0
23/09:00pm 16.5 15.4 10.1 66 3.4 ESE 6 7 3 4 1022.3 1021.9 0.0
23/08:30pm 17.1 17.1 9.8 62 3.9 CALM 0 0 0 0 1022.4 1022.0 0.0
23/08:00pm 18.1 18.0 9.5 57 4.6 CALM 0 0 0 0 1022.1 1021.6 0.0
23/07:30pm 19.4 19.4 9.9 54 5.1 CALM 0 0 0 0 1021.9 1021.4 0.0
23/07:00pm 19.8 19.8 9.7 52 5.4 CALM 0 0 0 0 1021.5 1021.0 0.0
23/06:30pm 20.9 20.9 9.8 49 6.0 CALM 0 0 0 0 1021.3 1020.8 0.0
23/06:00pm 22.1 22.0 9.6 45 6.8 CALM 0 0 0 0 1021.0 1020.5 0.0
23/05:30pm 24.3 23.7 9.1 38 8.3 SSE 2 6 1 3 1020.8 1020.3 0.0
23/05:00pm 25.6 24.6 9.0 35 9.1 ENE 4 7 2 4 1020.6 1020.1 0.0
23/04:30pm 27.2 26.7 9.5 33 9.9 N 2 9 1 5 1020.4 1019.9 0.0
23/04:00pm 26.9 25.4 9.3 33 9.8 WNW 7 11 4 6 1020.3 1019.8 0.0
23/03:30pm 27.0 25.8 9.4 33 9.8 NW 6 11 3 6 1020.5 1020.0 0.0
23/03:00pm 27.0 25.6 9.4 33 9.8 SW 7 13 4 7 1020.7 1020.2 0.0
23/02:30pm 26.0 25.1 9.4 35 9.2 NW 4 9 2 5 1020.9 1020.4 0.0
23/02:00pm 24.5 22.8 8.5 36 8.6 NE 7 15 4 8 1021.2 1020.7 0.0

Other Formats:

Comma delimited format used in spreadsheet applications
http://www.bom.gov.au/fwo/IDN60801/IDN60801.95710.axf

JavaScript Object Notation format (JSON) in row-major order
http://www.bom.gov.au/fwo/IDN60801/IDN60801.95710.json